createdAt,value
2022-09-09T00:00:55.284Z,96029.66
2022-09-09T00:03:32.047Z,96041.16
2022-09-09T00:06:11.375Z,96032.66
2022-09-09T00:08:53.604Z,96030.34
2022-09-09T00:11:31.644Z,96043.03
2022-09-09T00:14:09.320Z,96032.59
2022-09-09T00:16:48.848Z,96027.63
2022-09-09T00:19:30.068Z,96028.06
2022-09-09T00:22:16.402Z,96026.56
2022-09-09T00:24:54.487Z,96033.47
2022-09-09T00:27:33.315Z,96024.63
2022-09-09T00:30:19.717Z,96030.47
2022-09-09T00:32:59.228Z,96023.19
2022-09-09T00:35:38.921Z,96026.69
2022-09-09T00:38:17.207Z,96019.44
2022-09-09T00:40:53.867Z,96020.22
2022-09-09T00:43:32.168Z,96022.97
2022-09-09T00:46:19.356Z,96021.16
2022-09-09T00:49:01.542Z,96014.69
2022-09-09T00:51:47.856Z,96018.97
2022-09-09T00:54:40.081Z,96013.22
2022-09-09T00:57:25.181Z,96022.16
2022-09-09T01:00:06.477Z,96007.94
2022-09-09T01:02:48.582Z,96002.56
2022-09-09T01:05:32.469Z,96004.94
2022-09-09T01:08:18.207Z,96005.38
2022-09-09T01:10:54.209Z,96011.59
2022-09-09T01:13:31.253Z,96006.59
2022-09-09T01:16:07.404Z,96004.72
2022-09-09T01:18:45.510Z,96019.75
2022-09-09T01:21:26.962Z,96012.03
2022-09-09T01:24:16.555Z,96008.13
2022-09-09T01:26:53.605Z,96019.69
2022-09-09T01:29:26.914Z,96022.69
2022-09-09T01:32:01.899Z,96018.44
2022-09-09T01:34:40.734Z,96023.00
2022-09-09T01:37:15.836Z,96024.84
2022-09-09T01:39:48.855Z,96020.94
2022-09-09T01:42:23.111Z,96032.38
2022-09-09T01:44:56.358Z,96026.56
2022-09-09T01:47:29.516Z,96021.06
2022-09-09T01:50:04.146Z,96024.06
2022-09-09T01:52:38.216Z,96028.22
2022-09-09T01:55:12.471Z,96027.44
2022-09-09T01:57:57.171Z,96033.53
2022-09-09T02:00:32.896Z,96033.09
2022-09-09T02:03:14.735Z,96036.50
2022-09-09T02:05:51.808Z,96044.53
2022-09-09T02:08:29.776Z,96044.91
2022-09-09T02:11:08.308Z,96046.41
2022-09-09T02:13:44.665Z,96057.53
2022-09-09T02:16:25.255Z,96054.84
2022-09-09T02:19:02.814Z,96055.97
2022-09-09T02:21:37.801Z,96058.25
2022-09-09T02:24:11.451Z,96064.84
2022-09-09T02:26:46.061Z,96069.50
2022-09-09T02:29:24.786Z,96067.63
2022-09-09T02:32:03.086Z,96065.78
2022-09-09T02:34:41.028Z,96058.50
2022-09-09T02:37:15.508Z,96056.66
2022-09-09T02:39:48.705Z,96063.59
2022-09-09T02:42:21.589Z,96062.84
2022-09-09T02:44:56.059Z,96068.28
2022-09-09T02:47:37.517Z,96067.16
2022-09-09T02:50:15.647Z,96072.19
2022-09-09T02:52:56.974Z,96076.03
2022-09-09T02:55:40.327Z,96073.00
2022-09-09T02:58:17.978Z,96078.44
2022-09-09T03:00:53.605Z,96083.53
2022-09-09T03:03:26.538Z,96076.69
2022-09-09T03:05:59.674Z,96077.53
2022-09-09T03:08:32.837Z,96081.47
2022-09-09T03:11:05.847Z,96088.84
2022-09-09T03:13:39.918Z,96089.34
2022-09-09T03:16:15.310Z,96085.94
2022-09-09T03:18:48.444Z,96093.75
2022-09-09T03:21:21.239Z,96087.28
2022-09-09T03:23:54.021Z,96085.47
2022-09-09T03:26:26.845Z,96087.06
2022-09-09T03:29:01.569Z,96081.69
2022-09-09T03:31:37.516Z,96085.63
2022-09-09T03:34:10.365Z,96082.59
2022-09-09T03:36:43.230Z,96071.84
2022-09-09T03:39:16.615Z,96068.00
2022-09-09T03:41:49.712Z,96070.78
2022-09-09T03:44:22.583Z,96085.84
2022-09-09T03:46:56.884Z,96080.47
2022-09-09T03:49:30.397Z,96089.75
2022-09-09T03:52:03.557Z,96085.16
2022-09-09T03:54:36.717Z,96079.03
2022-09-09T03:57:09.606Z,96079.81
2022-09-09T03:59:42.382Z,96071.72
2022-09-09T04:02:16.723Z,96070.97
2022-09-09T04:04:49.641Z,96076.75
2022-09-09T04:07:22.527Z,96076.78
2022-09-09T04:09:55.675Z,96078.34
2022-09-09T04:12:28.525Z,96089.56
2022-09-09T04:15:01.845Z,96086.47
2022-09-09T04:17:37.320Z,96089.59
2022-09-09T04:20:12.456Z,96095.78
2022-09-09T04:22:45.297Z,96084.19
2022-09-09T04:25:18.102Z,96086.16
2022-09-09T04:27:56.262Z,96085.00
2022-09-09T04:30:29.490Z,96080.75
2022-09-09T04:33:03.809Z,96076.09
2022-09-09T04:35:36.668Z,96086.53
2022-09-09T04:38:10.413Z,96089.25
2022-09-09T04:40:44.859Z,96078.06
2022-09-09T04:43:18.117Z,96079.22
2022-09-09T04:45:52.583Z,96083.47
2022-09-09T04:48:27.163Z,96073.81
2022-09-09T04:51:01.269Z,96072.25
2022-09-09T04:53:35.133Z,96070.34
2022-09-09T04:56:11.101Z,96070.34
2022-09-09T04:58:45.061Z,96079.59
2022-09-09T05:01:21.153Z,96079.59
2022-09-09T05:03:55.482Z,96072.25
2022-09-09T05:06:28.307Z,96081.50
2022-09-09T05:09:01.311Z,96072.25
2022-09-09T05:11:37.803Z,96065.31
2022-09-09T05:14:12.470Z,96060.66
2022-09-09T05:16:48.149Z,96066.09
2022-09-09T05:19:22.408Z,96073.81
2022-09-09T05:21:55.206Z,96067.63
2022-09-09T05:24:27.983Z,96074.59
2022-09-09T05:27:02.717Z,96085.81
2022-09-09T05:29:35.570Z,96088.13
2022-09-09T05:32:10.566Z,96086.63
2022-09-09T05:34:47.847Z,96094.72
2022-09-09T05:37:20.799Z,96088.94
2022-09-09T05:39:54.361Z,96086.66
2022-09-09T05:42:27.655Z,96091.28
2022-09-09T05:45:00.798Z,96090.91
2022-09-09T05:47:33.858Z,96085.50
2022-09-09T05:50:09.928Z,96091.31
2022-09-09T05:52:43.020Z,96086.28
2022-09-09T05:55:16.522Z,96090.91
2022-09-09T05:57:52.964Z,96107.16
2022-09-09T06:00:25.932Z,96104.06
2022-09-09T06:02:58.782Z,96103.31
2022-09-09T06:05:34.236Z,96099.84
2022-09-09T06:08:07.101Z,96095.22
2022-09-09T06:10:39.890Z,96098.31
2022-09-09T06:13:12.757Z,96102.22
2022-09-09T06:15:52.169Z,96106.09
2022-09-09T06:18:25.086Z,96097.25
2022-09-09T06:21:01.598Z,96101.50
2022-09-09T06:23:36.067Z,96100.41
2022-09-09T06:26:12.519Z,96090.78
2022-09-09T06:28:45.332Z,96093.88
2022-09-09T06:31:24.118Z,96092.75
2022-09-09T06:34:00.938Z,96095.88
2022-09-09T06:36:37.829Z,96099.75
2022-09-09T06:39:14.841Z,96089.34
2022-09-09T06:41:48.333Z,96092.09
2022-09-09T06:44:21.312Z,96091.72
2022-09-09T06:46:54.266Z,96097.56
2022-09-09T06:49:27.608Z,96093.72
2022-09-09T06:52:01.892Z,96097.59
2022-09-09T06:54:38.135Z,96099.53
2022-09-09T07:00:04.860Z,96090.69
2022-09-09T07:02:40.728Z,96084.53
2022-09-09T07:05:13.979Z,96084.53
2022-09-09T07:07:48.220Z,96089.16
2022-09-09T07:10:21.534Z,96090.72
2022-09-09T07:12:54.640Z,96086.44
2022-09-09T07:15:27.627Z,96102.31
2022-09-09T07:18:04.061Z,96093.44
2022-09-09T07:20:37.060Z,96091.91
2022-09-09T07:23:11.276Z,96103.13
2022-09-09T07:25:46.741Z,96096.53
2022-09-09T07:28:19.662Z,96093.06
2022-09-09T07:30:59.072Z,96093.81
2022-09-09T07:33:34.681Z,96090.72
2022-09-09T07:36:11.436Z,96089.97
2022-09-09T07:38:47.373Z,96086.84
2022-09-09T07:41:23.667Z,96090.34
2022-09-09T07:43:56.845Z,96094.59
2022-09-09T07:46:29.794Z,96101.16
2022-09-09T07:49:03.400Z,96105.44
2022-09-09T07:51:38.257Z,96104.63
2022-09-09T07:54:14.406Z,96113.50
2022-09-09T07:56:47.818Z,96111.16
2022-09-09T07:59:20.777Z,96106.06
2022-09-09T08:01:55.572Z,96113.38
2022-09-09T08:04:29.268Z,96120.69
2022-09-09T08:07:04.195Z,96111.34
2022-09-09T08:09:38.526Z,96117.06
2022-09-09T08:12:14.377Z,96132.16
2022-09-09T08:14:47.226Z,96123.91
2022-09-09T08:17:20.145Z,96126.16
2022-09-09T08:19:53.010Z,96129.97
2022-09-09T08:22:26.442Z,96131.81
2022-09-09T08:27:34.490Z,96123.06
2022-09-09T08:30:08.698Z,96135.34
2022-09-09T08:32:45.512Z,96127.78
2022-09-09T08:35:20.313Z,96130.72
2022-09-09T08:37:56.318Z,96133.63
2022-09-09T08:40:40.385Z,96129.56
2022-09-09T08:43:14.278Z,96131.34
2022-09-09T08:45:52.661Z,96140.50
2022-09-09T08:48:44.384Z,96135.97
2022-09-09T08:51:18.753Z,96139.31
2022-09-09T08:53:57.739Z,96131.28
2022-09-09T08:56:34.970Z,96137.28
2022-09-09T08:59:08.836Z,96129.31
2022-09-09T09:01:53.129Z,96137.72
2022-09-09T09:04:41.089Z,96144.59
2022-09-09T09:07:24.118Z,96142.25
2022-09-09T09:10:09.083Z,96139.50
2022-09-09T09:12:50.205Z,96139.91
2022-09-09T09:15:28.341Z,96140.00
2022-09-09T09:18:04.257Z,96136.63
2022-09-09T09:20:44.714Z,96135.13
2022-09-09T09:23:24.466Z,96140.72
2022-09-09T09:26:01.926Z,96133.84
2022-09-09T09:28:37.642Z,96141.34
2022-09-09T09:31:13.842Z,96132.06
2022-09-09T09:33:51.225Z,96127.72
2022-09-09T09:36:28.301Z,96123.69
2022-09-09T09:41:56.361Z,96123.38
2022-09-09T09:44:33.759Z,96130.91
2022-09-09T09:47:13.525Z,96119.75
2022-09-09T09:49:55.138Z,96123.34
2022-09-09T09:52:30.775Z,96130.91
2022-09-09T09:55:08.572Z,96132.72
2022-09-09T09:57:41.856Z,96128.28
2022-09-09T10:00:21.669Z,96128.59
2022-09-09T10:02:54.629Z,96134.03
2022-09-09T10:05:35.544Z,96130.88
2022-09-09T10:08:12.981Z,96130.88
2022-09-09T10:10:57.397Z,96123.03
2022-09-09T10:13:38.773Z,96125.72
2022-09-09T10:16:34.545Z,96132.63
2022-09-09T10:19:15.878Z,96133.25
2022-09-09T10:22:21.036Z,96129.53
2022-09-09T10:25:35.618Z,96131.34
2022-09-09T10:28:55.571Z,96148.09
2022-09-09T10:31:39.609Z,96134.50
2022-09-09T10:34:28.521Z,96137.03
2022-09-09T10:37:09.897Z,96157.94
2022-09-09T10:39:43.918Z,96146.44
2022-09-09T10:42:18.591Z,96143.47
2022-09-09T10:45:05.603Z,96152.66
2022-09-09T10:47:52.413Z,96160.59
2022-09-09T10:51:05.294Z,96155.34
2022-09-09T10:53:47.226Z,96159.72
2022-09-09T10:56:25.126Z,96152.03
2022-09-09T10:59:03.344Z,96148.22
2022-09-09T11:01:45.845Z,96146.81
2022-09-09T11:04:26.049Z,96142.66
2022-09-09T11:07:00.943Z,96147.53
2022-09-09T11:09:40.362Z,96144.91
2022-09-09T11:12:17.822Z,96139.94
2022-09-09T11:14:56.657Z,96130.34
2022-09-09T11:17:39.061Z,96125.00
2022-09-09T11:20:16.643Z,96126.66
2022-09-09T11:23:01.290Z,96123.19
2022-09-09T11:25:39.520Z,96111.19
2022-09-09T11:28:28.195Z,96112.00
2022-09-09T11:31:21.149Z,96103.03
2022-09-09T11:34:09.683Z,96095.69
2022-09-09T11:36:58.371Z,96101.22
2022-09-09T11:39:47.495Z,96098.88
2022-09-09T11:42:23.383Z,96095.38
2022-09-09T11:44:57.812Z,96089.56
2022-09-09T11:47:32.964Z,96090.34
2022-09-09T11:50:31.464Z,96084.56
2022-09-09T11:53:26.141Z,96078.75
2022-09-09T11:56:11.650Z,96087.72
2022-09-09T11:58:56.270Z,96081.91
2022-09-09T12:01:41.352Z,96083.81
2022-09-09T12:04:29.993Z,96078.34
2022-09-09T12:07:07.021Z,96079.78
2022-09-09T12:09:52.092Z,96085.00
2022-09-09T12:12:32.042Z,96077.41
2022-09-09T12:15:30.363Z,96071.34
2022-09-09T12:18:04.000Z,96073.97
2022-09-09T12:20:39.922Z,96076.25
2022-09-09T12:23:26.244Z,96070.66
2022-09-09T12:26:16.732Z,96061.66
2022-09-09T12:28:58.267Z,96064.28
2022-09-09T12:31:37.298Z,96066.19
2022-09-09T12:34:19.129Z,96057.97
2022-09-09T12:37:04.417Z,96054.75
2022-09-09T12:39:43.602Z,96067.13
2022-09-09T12:42:21.092Z,96053.34
2022-09-09T12:44:56.140Z,96036.06
2022-09-09T12:47:38.728Z,96034.72
2022-09-09T12:50:19.766Z,96029.88
2022-09-09T12:52:55.495Z,96023.94
2022-09-09T12:55:32.331Z,96023.81
2022-09-09T12:58:08.170Z,96011.97
2022-09-09T13:00:53.246Z,96013.34
2022-09-09T13:03:27.213Z,96016.69
2022-09-09T13:06:02.213Z,96024.38
2022-09-09T13:08:35.180Z,96018.00
2022-09-09T13:11:13.368Z,96019.38
2022-09-09T13:13:59.858Z,96002.81
2022-09-09T13:16:38.901Z,96008.63
2022-09-09T13:19:18.006Z,96004.25
2022-09-09T13:21:51.802Z,96004.72
2022-09-09T13:24:30.762Z,96017.59
2022-09-09T13:27:06.626Z,96015.72
2022-09-09T13:29:41.678Z,96003.22
2022-09-09T13:32:19.898Z,96009.06
2022-09-09T13:34:54.161Z,96011.09
2022-09-09T13:37:32.303Z,96005.63
2022-09-09T13:40:08.562Z,96012.28
2022-09-09T13:42:44.452Z,96007.25
2022-09-09T13:45:22.838Z,96004.19
2022-09-09T13:47:56.754Z,95994.84
2022-09-09T13:50:31.433Z,95990.25
2022-09-09T13:53:05.629Z,95983.69
2022-09-09T13:55:40.233Z,95982.13
2022-09-09T13:58:19.265Z,95984.44
2022-09-09T14:00:53.976Z,95981.38
2022-09-09T14:03:26.915Z,95988.78
2022-09-09T14:06:00.144Z,95978.63
2022-09-09T14:08:38.459Z,95969.25
2022-09-09T14:11:14.484Z,95973.09
2022-09-09T14:13:47.808Z,95970.38
2022-09-09T14:16:22.845Z,95971.13
2022-09-09T14:18:57.228Z,95977.03
2022-09-09T14:21:30.434Z,95977.34
2022-09-09T14:24:03.715Z,95979.66
2022-09-09T14:26:37.223Z,95973.69
2022-09-09T14:29:10.141Z,95981.03
2022-09-09T14:31:44.606Z,95982.38
2022-09-09T14:34:17.899Z,95984.63
2022-09-09T14:36:51.547Z,95976.69
2022-09-09T14:39:24.610Z,95981.22
2022-09-09T14:41:57.542Z,95984.66
2022-09-09T14:44:30.467Z,95978.22
2022-09-09T14:47:04.745Z,95984.81
2022-09-09T14:49:39.114Z,95987.91
2022-09-09T14:52:14.087Z,95995.31
2022-09-09T14:54:47.426Z,95993.03
2022-09-09T14:57:20.269Z,95995.06
2022-09-09T14:59:53.232Z,95987.81
2022-09-09T15:02:27.589Z,95984.84
2022-09-09T15:05:00.645Z,96000.25
2022-09-09T15:07:33.520Z,96001.69
2022-09-09T15:10:07.635Z,96005.44
2022-09-09T15:12:40.584Z,96008.84
2022-09-09T15:15:13.839Z,96013.78
2022-09-09T15:17:48.551Z,96013.22
2022-09-09T15:20:21.571Z,96012.69
2022-09-09T15:22:54.384Z,96005.47
2022-09-09T15:25:27.559Z,95995.53
2022-09-09T15:28:00.450Z,96004.69
2022-09-09T15:30:33.320Z,96006.13
2022-09-09T15:33:13.032Z,96001.22
2022-09-09T15:35:45.999Z,95999.09
2022-09-09T15:38:20.028Z,96005.47
2022-09-09T15:40:56.582Z,95993.16
2022-09-09T15:43:29.381Z,95991.38
2022-09-09T15:46:25.459Z,95999.69
2022-09-09T15:49:01.148Z,95993.25
2022-09-09T15:51:43.069Z,95990.28
2022-09-09T15:54:19.098Z,95993.13
2022-09-09T15:56:55.901Z,95994.00
2022-09-09T15:59:30.272Z,96001.53
2022-09-09T16:02:03.846Z,96003.91
2022-09-09T16:04:38.634Z,96006.69
2022-09-09T16:07:11.655Z,95997.81
2022-09-09T16:09:44.606Z,95998.22
2022-09-09T16:12:17.484Z,95997.50
2022-09-09T16:14:50.656Z,95995.22
2022-09-09T16:17:23.501Z,95988.31
2022-09-09T16:19:58.624Z,95994.97
2022-09-09T16:22:31.714Z,95998.56
2022-09-09T16:25:04.831Z,95996.31
2022-09-09T16:27:38.297Z,95991.75
2022-09-09T16:30:12.428Z,95995.69
2022-09-09T16:32:45.421Z,95998.88
2022-09-09T16:35:20.507Z,96012.94
2022-09-09T16:37:54.187Z,96006.41
2022-09-09T16:40:27.061Z,96010.72
2022-09-09T16:43:01.771Z,96014.28
2022-09-09T16:45:34.614Z,96018.63
2022-09-09T16:48:07.746Z,96017.88
2022-09-09T16:50:41.887Z,96023.38
2022-09-09T16:53:14.940Z,96029.63
2022-09-09T16:55:47.956Z,96028.88
2022-09-09T16:58:20.749Z,96033.19
2022-09-09T17:01:00.153Z,96035.16
2022-09-09T17:03:33.939Z,96030.50
2022-09-09T17:06:13.428Z,96047.59
2022-09-09T17:08:46.394Z,96052.66
2022-09-09T17:11:20.766Z,96049.16
2022-09-09T17:13:55.625Z,96050.78
2022-09-09T17:16:31.316Z,96059.69
2022-09-09T17:19:05.855Z,96067.50
2022-09-09T17:21:59.930Z,96071.78
2022-09-09T17:24:34.070Z,96083.06
2022-09-09T17:27:06.859Z,96094.34
2022-09-09T17:29:40.389Z,96120.78
2022-09-09T17:32:13.242Z,96138.66
2022-09-09T17:34:46.976Z,96158.47
2022-09-09T17:37:21.119Z,96155.38
2022-09-09T17:39:53.972Z,96169.75
2022-09-09T17:42:26.832Z,96179.13
2022-09-09T17:45:00.374Z,96172.59
2022-09-09T17:47:33.220Z,96173.41
2022-09-09T17:50:07.644Z,96172.28
2022-09-09T17:52:42.656Z,96169.59
2022-09-09T17:55:16.832Z,96181.28
2022-09-09T17:57:49.629Z,96175.53
2022-09-09T18:00:22.760Z,96177.50
2022-09-09T18:02:56.082Z,96177.56
2022-09-09T18:05:29.038Z,96179.16
2022-09-09T18:08:04.200Z,96172.59
2022-09-09T18:10:37.092Z,96178.06
2022-09-09T18:13:10.451Z,96166.06
2022-09-09T18:15:49.765Z,96181.63
2022-09-09T18:18:23.196Z,96186.72
2022-09-09T18:21:01.842Z,96193.31
2022-09-09T18:23:38.648Z,96194.50
2022-09-09T18:26:13.787Z,96197.22
2022-09-09T18:28:52.167Z,96187.53
2022-09-09T18:31:28.155Z,96200.31
2022-09-09T18:34:04.421Z,96200.66
2022-09-09T18:36:39.883Z,96192.91
2022-09-09T18:39:16.498Z,96197.16
2022-09-09T18:41:51.858Z,96206.81
2022-09-09T18:44:27.032Z,96202.91
2022-09-09T18:47:00.691Z,96203.66
2022-09-09T18:49:34.585Z,96199.38
2022-09-09T18:52:10.996Z,96195.47
2022-09-09T18:54:48.394Z,96193.13
2022-09-09T18:57:21.770Z,96181.91
2022-09-09T18:59:55.803Z,96188.06
2022-09-09T19:02:29.038Z,96192.66
2022-09-09T19:05:03.046Z,96198.09
2022-09-09T19:07:36.060Z,96190.69
2022-09-09T19:10:11.374Z,96198.44
2022-09-09T19:12:44.566Z,96196.44
2022-09-09T19:15:18.021Z,96208.03
2022-09-09T19:17:51.278Z,96211.09
2022-09-09T19:20:25.656Z,96212.25
2022-09-09T19:22:58.588Z,96208.72
2022-09-09T19:25:37.444Z,96207.94
2022-09-09T19:28:11.021Z,96217.94
2022-09-09T19:30:47.752Z,96213.63
2022-09-09T19:33:20.617Z,96215.50
2022-09-09T19:35:58.830Z,96224.31
2022-09-09T19:38:32.864Z,96233.88
2022-09-09T19:41:09.919Z,96226.88
2022-09-09T19:43:43.128Z,96234.13
2022-09-09T19:46:18.309Z,96231.34
2022-09-09T19:48:51.262Z,96242.09
2022-09-09T19:51:25.105Z,96233.13
2022-09-09T19:53:59.576Z,96228.41
2022-09-09T19:56:35.605Z,96230.69
2022-09-09T19:59:10.739Z,96233.25
2022-09-09T20:01:45.713Z,96227.00
2022-09-09T20:04:18.692Z,96235.38
2022-09-09T20:06:53.250Z,96230.25
2022-09-09T20:09:29.033Z,96235.56
2022-09-09T20:12:03.936Z,96228.19
2022-09-09T20:14:39.601Z,96232.28
2022-09-09T20:17:12.958Z,96228.72
2022-09-09T20:19:46.423Z,96235.56
2022-09-09T20:22:19.816Z,96234.69
2022-09-09T20:24:52.807Z,96236.16
2022-09-09T20:27:27.915Z,96238.03
2022-09-09T20:30:00.749Z,96231.75
2022-09-09T20:32:33.903Z,96246.00
2022-09-09T20:35:08.361Z,96235.84
2022-09-09T20:37:42.563Z,96237.75
2022-09-09T20:40:15.836Z,96245.75
2022-09-09T20:42:51.439Z,96241.47
2022-09-09T20:45:24.304Z,96244.09
2022-09-09T20:47:57.429Z,96249.84
2022-09-09T20:50:31.516Z,96243.63
2022-09-09T20:53:05.208Z,96252.06
2022-09-09T20:55:38.082Z,96256.66
2022-09-09T20:58:12.482Z,96245.88
2022-09-09T21:00:45.388Z,96249.00
2022-09-09T21:03:18.201Z,96248.56
2022-09-09T21:05:51.033Z,96257.88
2022-09-09T21:08:24.123Z,96273.69
2022-09-09T21:10:57.548Z,96283.34
2022-09-09T21:13:32.613Z,96287.22
2022-09-09T21:16:06.367Z,96288.78
2022-09-09T21:18:40.570Z,96294.53
2022-09-09T21:21:13.749Z,96295.31
2022-09-09T21:23:46.554Z,96302.63
2022-09-09T21:26:19.640Z,96308.44
2022-09-09T21:28:54.987Z,96304.66
2022-09-09T21:31:28.656Z,96317.41
2022-09-09T21:34:01.765Z,96310.19
2022-09-09T21:36:34.541Z,96296.38
2022-09-09T21:39:07.788Z,96304.53
2022-09-09T21:41:41.108Z,96310.75
2022-09-09T21:44:15.359Z,96309.66
2022-09-09T21:46:48.332Z,96306.97
2022-09-09T21:49:21.574Z,96310.84
2022-09-09T21:51:55.239Z,96308.56
2022-09-09T21:54:31.656Z,96307.44
2022-09-09T21:57:04.764Z,96312.47
2022-09-09T21:59:38.970Z,96307.50
2022-09-09T22:02:12.775Z,96302.47
2022-09-09T22:04:45.912Z,96306.31
2022-09-09T22:07:18.758Z,96314.06
2022-09-09T22:09:51.530Z,96313.69
2022-09-09T22:12:24.648Z,96311.78
2022-09-09T22:14:58.794Z,96313.69
2022-09-09T22:17:31.876Z,96312.94
2022-09-09T22:20:05.664Z,96312.16
2022-09-09T22:22:38.469Z,96315.19
2022-09-09T22:25:11.318Z,96309.78
2022-09-09T22:27:44.237Z,96310.91
2022-09-09T22:30:19.465Z,96313.97
2022-09-09T22:32:52.396Z,96305.44
2022-09-09T22:35:25.771Z,96301.97
2022-09-09T22:37:58.607Z,96307.78
2022-09-09T22:40:31.510Z,96312.47
2022-09-09T22:43:04.708Z,96297.09
2022-09-09T22:45:38.868Z,96295.59
2022-09-09T22:48:13.104Z,96298.72
2022-09-09T22:50:46.724Z,96304.91
2022-09-09T22:53:19.947Z,96296.03
2022-09-09T22:55:59.381Z,96294.09
2022-09-09T22:58:34.238Z,96299.44
2022-09-09T23:01:15.878Z,96295.19
2022-09-09T23:03:50.674Z,96298.56
2022-09-09T23:06:25.560Z,96296.59
2022-09-09T23:09:01.417Z,96303.50
2022-09-09T23:11:37.002Z,96299.19
2022-09-09T23:14:13.145Z,96303.44
2022-09-09T23:16:48.187Z,96303.44
2022-09-09T23:19:21.906Z,96303.06
2022-09-09T23:21:54.865Z,96303.88
2022-09-09T23:24:28.961Z,96300.91
2022-09-09T23:27:01.777Z,96306.41
2022-09-09T23:29:34.753Z,96315.34
2022-09-09T23:32:09.181Z,96308.91
2022-09-09T23:34:42.770Z,96310.94
2022-09-09T23:37:16.422Z,96306.03
2022-09-09T23:39:49.585Z,96308.09
2022-09-09T23:42:22.421Z,96308.59
2022-09-09T23:44:55.628Z,96303.63
2022-09-09T23:47:30.333Z,96297.97
2022-09-09T23:50:03.239Z,96298.44
2022-09-09T23:52:37.064Z,96296.97
2022-09-09T23:55:10.417Z,96292.78
2022-09-09T23:57:43.230Z,96301.31
